sensor_id;sensor_type;location;lat;lon;timestamp;temperature;humidity
10472;DHT22;5283;48.876;8.962;2022-07-25T00:00:20;16.40;99.90
10472;DHT22;5283;48.876;8.962;2022-07-25T00:02:47;16.30;99.90
10472;DHT22;5283;48.876;8.962;2022-07-25T00:05:14;16.20;99.90
10472;DHT22;5283;48.876;8.962;2022-07-25T00:07:40;16.10;99.90
10472;DHT22;5283;48.876;8.962;2022-07-25T00:10:08;16.10;99.90
10472;DHT22;5283;48.876;8.962;2022-07-25T00:12:34;16.20;99.90
10472;DHT22;5283;48.876;8.962;2022-07-25T00:15:02;16.20;99.90
10472;DHT22;5283;48.876;8.962;2022-07-25T00:17:29;16.30;99.90
10472;DHT22;5283;48.876;8.962;2022-07-25T00:19:55;16.20;99.90
10472;DHT22;5283;48.876;8.962;2022-07-25T00:22:22;16.20;99.90
10472;DHT22;5283;48.876;8.962;2022-07-25T00:24:49;16.20;99.90
10472;DHT22;5283;48.876;8.962;2022-07-25T00:27:16;16.20;99.90
10472;DHT22;5283;48.876;8.962;2022-07-25T00:29:43;16.30;99.90
10472;DHT22;5283;48.876;8.962;2022-07-25T00:32:09;16.20;99.90
10472;DHT22;5283;48.876;8.962;2022-07-25T00:34:36;16.30;99.90
10472;DHT22;5283;48.876;8.962;2022-07-25T00:37:03;16.30;99.90
10472;DHT22;5283;48.876;8.962;2022-07-25T00:39:30;16.40;99.90
10472;DHT22;5283;48.876;8.962;2022-07-25T00:41:57;16.40;99.90
10472;DHT22;5283;48.876;8.962;2022-07-25T00:44:31;16.40;99.90
10472;DHT22;5283;48.876;8.962;2022-07-25T00:46:58;16.30;99.90
10472;DHT22;5283;48.876;8.962;2022-07-25T00:49:25;16.30;99.90
10472;DHT22;5283;48.876;8.962;2022-07-25T00:51:53;16.40;99.90
10472;DHT22;5283;48.876;8.962;2022-07-25T00:54:20;16.40;99.90
10472;DHT22;5283;48.876;8.962;2022-07-25T00:56:48;16.50;99.90
10472;DHT22;5283;48.876;8.962;2022-07-25T00:59:15;16.50;99.90
10472;DHT22;5283;48.876;8.962;2022-07-25T01:01:43;16.40;99.90
10472;DHT22;5283;48.876;8.962;2022-07-25T01:04:14;16.40;99.90
10472;DHT22;5283;48.876;8.962;2022-07-25T01:06:41;16.40;99.90
10472;DHT22;5283;48.876;8.962;2022-07-25T01:09:08;16.40;99.90
10472;DHT22;5283;48.876;8.962;2022-07-25T01:11:35;16.40;99.90
10472;DHT22;5283;48.876;8.962;2022-07-25T01:14:02;16.30;99.90
10472;DHT22;5283;48.876;8.962;2022-07-25T01:16:29;16.30;99.90
10472;DHT22;5283;48.876;8.962;2022-07-25T01:18:56;16.30;99.90
10472;DHT22;5283;48.876;8.962;2022-07-25T01:21:24;16.30;99.90
10472;DHT22;5283;48.876;8.962;2022-07-25T01:23:50;16.40;99.90
10472;DHT22;5283;48.876;8.962;2022-07-25T01:26:17;16.40;99.90
10472;DHT22;5283;48.876;8.962;2022-07-25T01:28:44;16.40;99.90
10472;DHT22;5283;48.876;8.962;2022-07-25T01:31:11;16.50;99.90
10472;DHT22;5283;48.876;8.962;2022-07-25T01:33:37;16.50;99.90
10472;DHT22;5283;48.876;8.962;2022-07-25T01:36:04;16.60;99.90
10472;DHT22;5283;48.876;8.962;2022-07-25T01:38:31;16.60;99.90
10472;DHT22;5283;48.876;8.962;2022-07-25T01:40:58;16.60;99.90
10472;DHT22;5283;48.876;8.962;2022-07-25T01:43:25;16.60;99.90
10472;DHT22;5283;48.876;8.962;2022-07-25T01:45:51;16.70;99.90
10472;DHT22;5283;48.876;8.962;2022-07-25T01:48:18;16.70;99.90
10472;DHT22;5283;48.876;8.962;2022-07-25T01:50:45;16.70;99.90
10472;DHT22;5283;48.876;8.962;2022-07-25T01:53:11;16.80;99.90
10472;DHT22;5283;48.876;8.962;2022-07-25T01:55:38;16.80;99.90
10472;DHT22;5283;48.876;8.962;2022-07-25T01:58:05;16.90;99.90
10472;DHT22;5283;48.876;8.962;2022-07-25T02:00:32;17.00;99.90
10472;DHT22;5283;48.876;8.962;2022-07-25T02:02:59;17.00;99.90
10472;DHT22;5283;48.876;8.962;2022-07-25T02:05:44;17.20;99.90
10472;DHT22;5283;48.876;8.962;2022-07-25T02:08:11;17.40;99.90
10472;DHT22;5283;48.876;8.962;2022-07-25T02:10:38;17.60;99.90
10472;DHT22;5283;48.876;8.962;2022-07-25T02:13:05;17.70;99.90
10472;DHT22;5283;48.876;8.962;2022-07-25T02:15:32;17.70;99.90
10472;DHT22;5283;48.876;8.962;2022-07-25T02:17:58;17.70;99.90
10472;DHT22;5283;48.876;8.962;2022-07-25T02:20:25;17.80;99.90
10472;DHT22;5283;48.876;8.962;2022-07-25T02:22:52;17.90;99.90
10472;DHT22;5283;48.876;8.962;2022-07-25T02:25:18;17.90;99.90
10472;DHT22;5283;48.876;8.962;2022-07-25T02:27:45;17.90;99.90
10472;DHT22;5283;48.876;8.962;2022-07-25T02:30:12;17.90;99.90
10472;DHT22;5283;48.876;8.962;2022-07-25T02:32:39;17.90;99.90
10472;DHT22;5283;48.876;8.962;2022-07-25T02:35:06;18.00;99.90
10472;DHT22;5283;48.876;8.962;2022-07-25T02:37:33;18.00;99.90
10472;DHT22;5283;48.876;8.962;2022-07-25T02:40:00;18.00;99.90
10472;DHT22;5283;48.876;8.962;2022-07-25T02:42:27;18.00;99.90
10472;DHT22;5283;48.876;8.962;2022-07-25T02:44:53;18.00;99.90
10472;DHT22;5283;48.876;8.962;2022-07-25T02:47:20;17.90;99.90
10472;DHT22;5283;48.876;8.962;2022-07-25T02:49:47;17.80;99.90
10472;DHT22;5283;48.876;8.962;2022-07-25T02:52:13;17.90;99.90
10472;DHT22;5283;48.876;8.962;2022-07-25T02:54:40;18.00;99.90
10472;DHT22;5283;48.876;8.962;2022-07-25T02:57:07;17.90;99.90
10472;DHT22;5283;48.876;8.962;2022-07-25T02:59:33;17.80;99.90
10472;DHT22;5283;48.876;8.962;2022-07-25T03:02:00;17.80;99.90
10472;DHT22;5283;48.876;8.962;2022-07-25T03:04:27;17.70;99.90
10472;DHT22;5283;48.876;8.962;2022-07-25T03:06:54;17.70;99.90
10472;DHT22;5283;48.876;8.962;2022-07-25T03:09:20;17.70;99.90
10472;DHT22;5283;48.876;8.962;2022-07-25T03:11:47;17.80;99.90
10472;DHT22;5283;48.876;8.962;2022-07-25T03:14:15;17.80;99.90
10472;DHT22;5283;48.876;8.962;2022-07-25T03:16:42;17.80;99.90
10472;DHT22;5283;48.876;8.962;2022-07-25T03:19:09;17.90;99.90
10472;DHT22;5283;48.876;8.962;2022-07-25T03:21:38;17.80;99.90
10472;DHT22;5283;48.876;8.962;2022-07-25T03:24:05;17.70;99.90
10472;DHT22;5283;48.876;8.962;2022-07-25T03:26:32;17.80;99.90
10472;DHT22;5283;48.876;8.962;2022-07-25T03:28:59;17.70;99.90
10472;DHT22;5283;48.876;8.962;2022-07-25T03:31:25;17.70;99.90
10472;DHT22;5283;48.876;8.962;2022-07-25T03:33:52;17.80;99.90
10472;DHT22;5283;48.876;8.962;2022-07-25T03:36:19;17.80;99.90
10472;DHT22;5283;48.876;8.962;2022-07-25T03:38:46;17.80;99.90
10472;DHT22;5283;48.876;8.962;2022-07-25T03:41:12;17.80;99.90
10472;DHT22;5283;48.876;8.962;2022-07-25T03:43:39;17.70;99.90
10472;DHT22;5283;48.876;8.962;2022-07-25T03:46:06;17.60;99.90
10472;DHT22;5283;48.876;8.962;2022-07-25T03:48:33;17.60;99.90
10472;DHT22;5283;48.876;8.962;2022-07-25T03:50:59;17.60;99.90
10472;DHT22;5283;48.876;8.962;2022-07-25T03:53:29;17.60;99.90
10472;DHT22;5283;48.876;8.962;2022-07-25T03:55:55;17.60;99.90
10472;DHT22;5283;48.876;8.962;2022-07-25T03:58:22;17.60;99.90
10472;DHT22;5283;48.876;8.962;2022-07-25T04:00:49;17.60;99.90
10472;DHT22;5283;48.876;8.962;2022-07-25T04:03:15;17.70;99.90
10472;DHT22;5283;48.876;8.962;2022-07-25T04:05:42;17.70;99.90
10472;DHT22;5283;48.876;8.962;2022-07-25T04:08:12;17.80;99.90
10472;DHT22;5283;48.876;8.962;2022-07-25T04:10:39;17.80;99.90
10472;DHT22;5283;48.876;8.962;2022-07-25T04:13:06;17.80;99.90
10472;DHT22;5283;48.876;8.962;2022-07-25T04:15:33;17.80;99.90
10472;DHT22;5283;48.876;8.962;2022-07-25T04:18:00;17.90;99.90
10472;DHT22;5283;48.876;8.962;2022-07-25T04:20:27;18.20;99.90
10472;DHT22;5283;48.876;8.962;2022-07-25T04:22:53;18.60;99.90
10472;DHT22;5283;48.876;8.962;2022-07-25T04:25:20;19.10;99.90
10472;DHT22;5283;48.876;8.962;2022-07-25T04:27:47;19.70;99.90
10472;DHT22;5283;48.876;8.962;2022-07-25T04:30:14;20.20;99.90
10472;DHT22;5283;48.876;8.962;2022-07-25T04:32:41;20.90;99.90
10472;DHT22;5283;48.876;8.962;2022-07-25T04:35:08;21.50;99.90
10472;DHT22;5283;48.876;8.962;2022-07-25T04:37:34;21.90;99.90
10472;DHT22;5283;48.876;8.962;2022-07-25T04:40:04;22.30;99.90
10472;DHT22;5283;48.876;8.962;2022-07-25T04:42:31;23.00;99.90
10472;DHT22;5283;48.876;8.962;2022-07-25T04:44:57;23.70;99.90
10472;DHT22;5283;48.876;8.962;2022-07-25T04:47:24;24.00;99.90
10472;DHT22;5283;48.876;8.962;2022-07-25T04:49:51;24.60;99.90
10472;DHT22;5283;48.876;8.962;2022-07-25T04:52:18;24.80;99.90
10472;DHT22;5283;48.876;8.962;2022-07-25T04:54:44;25.30;99.90
10472;DHT22;5283;48.876;8.962;2022-07-25T04:57:11;25.70;99.90
10472;DHT22;5283;48.876;8.962;2022-07-25T04:59:38;26.00;99.90
10472;DHT22;5283;48.876;8.962;2022-07-25T05:02:04;26.50;99.90
10472;DHT22;5283;48.876;8.962;2022-07-25T05:04:31;27.10;99.90
10472;DHT22;5283;48.876;8.962;2022-07-25T05:06:58;27.50;99.90
10472;DHT22;5283;48.876;8.962;2022-07-25T05:09:25;27.70;99.90
10472;DHT22;5283;48.876;8.962;2022-07-25T05:11:53;28.00;99.90
10472;DHT22;5283;48.876;8.962;2022-07-25T05:14:21;28.20;99.90
10472;DHT22;5283;48.876;8.962;2022-07-25T05:16:48;28.50;99.90
10472;DHT22;5283;48.876;8.962;2022-07-25T05:19:15;29.00;99.90
10472;DHT22;5283;48.876;8.962;2022-07-25T05:21:41;29.20;99.90
10472;DHT22;5283;48.876;8.962;2022-07-25T05:24:08;29.50;99.90
10472;DHT22;5283;48.876;8.962;2022-07-25T05:26:35;29.90;99.90
10472;DHT22;5283;48.876;8.962;2022-07-25T05:29:02;30.10;99.90
10472;DHT22;5283;48.876;8.962;2022-07-25T05:31:29;30.30;99.90
10472;DHT22;5283;48.876;8.962;2022-07-25T05:33:55;30.60;99.90
10472;DHT22;5283;48.876;8.962;2022-07-25T05:36:22;30.70;99.90
10472;DHT22;5283;48.876;8.962;2022-07-25T05:38:49;31.00;99.90
10472;DHT22;5283;48.876;8.962;2022-07-25T05:41:16;30.80;99.90
10472;DHT22;5283;48.876;8.962;2022-07-25T05:43:42;31.00;99.90
10472;DHT22;5283;48.876;8.962;2022-07-25T05:46:11;31.30;99.90
10472;DHT22;5283;48.876;8.962;2022-07-25T05:48:38;31.30;99.90
10472;DHT22;5283;48.876;8.962;2022-07-25T05:51:05;31.60;99.90
10472;DHT22;5283;48.876;8.962;2022-07-25T05:53:32;31.80;99.90
10472;DHT22;5283;48.876;8.962;2022-07-25T05:55:59;32.00;99.90
10472;DHT22;5283;48.876;8.962;2022-07-25T05:58:26;32.20;99.90
10472;DHT22;5283;48.876;8.962;2022-07-25T06:00:55;32.40;99.90
10472;DHT22;5283;48.876;8.962;2022-07-25T06:03:22;32.80;98.80
10472;DHT22;5283;48.876;8.962;2022-07-25T06:05:48;32.80;98.20
10472;DHT22;5283;48.876;8.962;2022-07-25T06:08:15;32.90;98.30
10472;DHT22;5283;48.876;8.962;2022-07-25T06:10:42;32.90;97.50
10472;DHT22;5283;48.876;8.962;2022-07-25T06:13:08;33.00;97.40
10472;DHT22;5283;48.876;8.962;2022-07-25T06:15:35;33.00;97.60
10472;DHT22;5283;48.876;8.962;2022-07-25T06:18:02;33.10;96.90
10472;DHT22;5283;48.876;8.962;2022-07-25T06:20:29;33.10;96.10
10472;DHT22;5283;48.876;8.962;2022-07-25T06:22:56;33.00;96.90
10472;DHT22;5283;48.876;8.962;2022-07-25T06:25:23;33.10;96.80
10472;DHT22;5283;48.876;8.962;2022-07-25T06:27:49;33.30;96.20
10472;DHT22;5283;48.876;8.962;2022-07-25T06:30:16;33.60;95.30
10472;DHT22;5283;48.876;8.962;2022-07-25T06:32:46;33.60;96.00
10472;DHT22;5283;48.876;8.962;2022-07-25T06:35:13;34.10;95.60
10472;DHT22;5283;48.876;8.962;2022-07-25T06:37:40;34.30;94.90
10472;DHT22;5283;48.876;8.962;2022-07-25T06:40:08;34.40;94.90
10472;DHT22;5283;48.876;8.962;2022-07-25T06:42:42;34.50;94.10
10472;DHT22;5283;48.876;8.962;2022-07-25T06:45:11;34.10;94.60
10472;DHT22;5283;48.876;8.962;2022-07-25T06:47:39;34.30;94.50
10472;DHT22;5283;48.876;8.962;2022-07-25T06:50:08;34.30;94.60
10472;DHT22;5283;48.876;8.962;2022-07-25T06:52:35;34.60;94.20
10472;DHT22;5283;48.876;8.962;2022-07-25T06:55:03;34.80;93.40
10472;DHT22;5283;48.876;8.962;2022-07-25T06:57:30;34.80;94.10
10472;DHT22;5283;48.876;8.962;2022-07-25T06:59:57;35.10;94.00
10472;DHT22;5283;48.876;8.962;2022-07-25T07:02:24;35.10;93.00
10472;DHT22;5283;48.876;8.962;2022-07-25T07:04:50;34.50;93.50
10472;DHT22;5283;48.876;8.962;2022-07-25T07:07:17;34.70;93.50
10472;DHT22;5283;48.876;8.962;2022-07-25T07:09:44;34.90;93.90
10472;DHT22;5283;48.876;8.962;2022-07-25T07:12:11;35.20;93.40
10472;DHT22;5283;48.876;8.962;2022-07-25T07:14:37;35.60;92.90
10472;DHT22;5283;48.876;8.962;2022-07-25T07:17:04;35.60;92.30
10472;DHT22;5283;48.876;8.962;2022-07-25T07:19:31;35.90;92.50
10472;DHT22;5283;48.876;8.962;2022-07-25T07:21:58;36.00;91.50
10472;DHT22;5283;48.876;8.962;2022-07-25T07:24:24;36.40;91.60
10472;DHT22;5283;48.876;8.962;2022-07-25T07:26:53;36.60;91.30
10472;DHT22;5283;48.876;8.962;2022-07-25T07:29:20;36.70;90.70
10472;DHT22;5283;48.876;8.962;2022-07-25T07:31:47;36.80;90.50
10472;DHT22;5283;48.876;8.962;2022-07-25T07:34:14;36.80;90.30
10472;DHT22;5283;48.876;8.962;2022-07-25T07:36:41;36.70;89.80
10472;DHT22;5283;48.876;8.962;2022-07-25T07:39:07;36.70;89.30
10472;DHT22;5283;48.876;8.962;2022-07-25T07:41:34;36.60;88.90
10472;DHT22;5283;48.876;8.962;2022-07-25T07:44:01;36.90;90.00
10472;DHT22;5283;48.876;8.962;2022-07-25T07:46:28;36.90;87.20
10472;DHT22;5283;48.876;8.962;2022-07-25T07:48:55;37.00;87.40
10472;DHT22;5283;48.876;8.962;2022-07-25T07:51:22;37.20;87.80
10472;DHT22;5283;48.876;8.962;2022-07-25T07:53:48;37.20;85.70
10472;DHT22;5283;48.876;8.962;2022-07-25T07:56:34;37.20;87.10
10472;DHT22;5283;48.876;8.962;2022-07-25T07:59:01;37.20;86.10
10472;DHT22;5283;48.876;8.962;2022-07-25T08:01:27;37.40;86.80
10472;DHT22;5283;48.876;8.962;2022-07-25T08:03:54;37.70;84.10
10472;DHT22;5283;48.876;8.962;2022-07-25T08:06:21;37.80;84.10
10472;DHT22;5283;48.876;8.962;2022-07-25T08:08:47;37.60;83.40
10472;DHT22;5283;48.876;8.962;2022-07-25T08:11:14;37.60;84.00
10472;DHT22;5283;48.876;8.962;2022-07-25T08:13:41;37.70;83.40
10472;DHT22;5283;48.876;8.962;2022-07-25T08:16:07;38.10;81.50
10472;DHT22;5283;48.876;8.962;2022-07-25T08:18:37;38.60;82.60
10472;DHT22;5283;48.876;8.962;2022-07-25T08:21:04;38.90;79.80
10472;DHT22;5283;48.876;8.962;2022-07-25T08:23:32;38.60;78.90
10472;DHT22;5283;48.876;8.962;2022-07-25T08:26:01;38.00;78.70
10472;DHT22;5283;48.876;8.962;2022-07-25T08:28:27;36.10;79.40
10472;DHT22;5283;48.876;8.962;2022-07-25T08:30:54;35.40;81.90
10472;DHT22;5283;48.876;8.962;2022-07-25T08:33:21;34.50;83.40
10472;DHT22;5283;48.876;8.962;2022-07-25T08:35:50;34.10;87.50
10472;DHT22;5283;48.876;8.962;2022-07-25T08:38:18;34.10;84.50
10472;DHT22;5283;48.876;8.962;2022-07-25T08:40:45;34.10;86.00
10472;DHT22;5283;48.876;8.962;2022-07-25T08:43:14;33.80;88.70
10472;DHT22;5283;48.876;8.962;2022-07-25T08:45:47;33.50;89.40
10472;DHT22;5283;48.876;8.962;2022-07-25T08:48:22;33.10;90.00
10472;DHT22;5283;48.876;8.962;2022-07-25T08:50:50;32.80;89.80
10472;DHT22;5283;48.876;8.962;2022-07-25T08:53:17;32.50;90.70
10472;DHT22;5283;48.876;8.962;2022-07-25T08:56:05;32.70;90.50
10472;DHT22;5283;48.876;8.962;2022-07-25T08:58:39;32.60;91.10
10472;DHT22;5283;48.876;8.962;2022-07-25T09:01:06;32.60;89.40
10472;DHT22;5283;48.876;8.962;2022-07-25T09:03:33;32.60;86.70
10472;DHT22;5283;48.876;8.962;2022-07-25T09:06:20;32.50;87.30
10472;DHT22;5283;48.876;8.962;2022-07-25T09:08:55;32.40;88.90
10472;DHT22;5283;48.876;8.962;2022-07-25T09:11:31;32.50;88.30
10472;DHT22;5283;48.876;8.962;2022-07-25T09:14:00;32.30;89.40
10472;DHT22;5283;48.876;8.962;2022-07-25T09:16:30;32.50;89.20
10472;DHT22;5283;48.876;8.962;2022-07-25T09:19:07;32.60;88.00
10472;DHT22;5283;48.876;8.962;2022-07-25T09:21:34;32.60;85.80
10472;DHT22;5283;48.876;8.962;2022-07-25T09:24:08;32.50;87.50
10472;DHT22;5283;48.876;8.962;2022-07-25T09:26:52;32.50;88.90
10472;DHT22;5283;48.876;8.962;2022-07-25T09:29:23;32.40;85.00
10472;DHT22;5283;48.876;8.962;2022-07-25T09:31:51;32.50;85.60
10472;DHT22;5283;48.876;8.962;2022-07-25T09:34:39;32.50;85.50
10472;DHT22;5283;48.876;8.962;2022-07-25T09:37:08;32.70;85.90
10472;DHT22;5283;48.876;8.962;2022-07-25T09:39:49;32.50;87.30
10472;DHT22;5283;48.876;8.962;2022-07-25T09:42:28;32.50;88.20
10472;DHT22;5283;48.876;8.962;2022-07-25T09:45:05;32.50;88.20
10472;DHT22;5283;48.876;8.962;2022-07-25T09:47:36;32.60;88.50
10472;DHT22;5283;48.876;8.962;2022-07-25T09:50:04;32.60;87.00
10472;DHT22;5283;48.876;8.962;2022-07-25T09:52:31;32.50;87.60
10472;DHT22;5283;48.876;8.962;2022-07-25T09:55:02;32.50;85.60
10472;DHT22;5283;48.876;8.962;2022-07-25T09:57:29;32.80;84.50
10472;DHT22;5283;48.876;8.962;2022-07-25T09:59:58;32.80;84.00
10472;DHT22;5283;48.876;8.962;2022-07-25T10:02:47;32.90;82.80
10472;DHT22;5283;48.876;8.962;2022-07-25T10:05:19;33.00;83.60
10472;DHT22;5283;48.876;8.962;2022-07-25T10:07:53;33.20;82.20
10472;DHT22;5283;48.876;8.962;2022-07-25T10:10:28;33.20;80.70
10472;DHT22;5283;48.876;8.962;2022-07-25T10:15:54;33.40;78.70
10472;DHT22;5283;48.876;8.962;2022-07-25T10:18:23;33.20;81.20
10472;DHT22;5283;48.876;8.962;2022-07-25T10:20:54;33.20;79.70
10472;DHT22;5283;48.876;8.962;2022-07-25T10:23:26;33.30;78.30
10472;DHT22;5283;48.876;8.962;2022-07-25T10:26:19;33.30;77.80
10472;DHT22;5283;48.876;8.962;2022-07-25T10:28:48;33.40;78.30
10472;DHT22;5283;48.876;8.962;2022-07-25T10:31:23;33.60;77.80
10472;DHT22;5283;48.876;8.962;2022-07-25T10:34:04;33.80;79.00
10472;DHT22;5283;48.876;8.962;2022-07-25T10:36:43;33.70;79.30
10472;DHT22;5283;48.876;8.962;2022-07-25T10:39:13;33.70;78.80
10472;DHT22;5283;48.876;8.962;2022-07-25T10:41:48;33.60;78.60
10472;DHT22;5283;48.876;8.962;2022-07-25T10:44:16;33.70;79.20
10472;DHT22;5283;48.876;8.962;2022-07-25T10:46:43;33.80;77.80
10472;DHT22;5283;48.876;8.962;2022-07-25T10:49:27;34.00;77.00
10472;DHT22;5283;48.876;8.962;2022-07-25T10:52:02;34.10;77.60
10472;DHT22;5283;48.876;8.962;2022-07-25T10:54:35;34.20;79.10
10472;DHT22;5283;48.876;8.962;2022-07-25T10:57:14;34.30;78.90
10472;DHT22;5283;48.876;8.962;2022-07-25T10:59:41;34.50;79.20
10472;DHT22;5283;48.876;8.962;2022-07-25T11:02:10;34.60;76.10
10472;DHT22;5283;48.876;8.962;2022-07-25T11:04:43;34.50;75.00
10472;DHT22;5283;48.876;8.962;2022-07-25T11:07:15;34.60;76.30
10472;DHT22;5283;48.876;8.962;2022-07-25T11:09:59;34.70;78.50
10472;DHT22;5283;48.876;8.962;2022-07-25T11:12:27;34.80;78.10
10472;DHT22;5283;48.876;8.962;2022-07-25T11:15:02;34.80;76.80
10472;DHT22;5283;48.876;8.962;2022-07-25T11:17:29;34.70;77.30
10472;DHT22;5283;48.876;8.962;2022-07-25T11:20:01;34.80;76.40
10472;DHT22;5283;48.876;8.962;2022-07-25T11:22:29;34.80;75.20
10472;DHT22;5283;48.876;8.962;2022-07-25T11:24:57;34.80;77.60
10472;DHT22;5283;48.876;8.962;2022-07-25T11:27:29;35.00;75.80
10472;DHT22;5283;48.876;8.962;2022-07-25T11:30:09;34.90;76.80
10472;DHT22;5283;48.876;8.962;2022-07-25T11:32:41;35.00;75.10
10472;DHT22;5283;48.876;8.962;2022-07-25T11:35:10;35.20;76.50
10472;DHT22;5283;48.876;8.962;2022-07-25T11:37:38;35.40;76.10
10472;DHT22;5283;48.876;8.962;2022-07-25T11:40:07;35.20;75.90
10472;DHT22;5283;48.876;8.962;2022-07-25T11:42:42;34.70;75.50
10472;DHT22;5283;48.876;8.962;2022-07-25T11:45:22;34.30;76.80
10472;DHT22;5283;48.876;8.962;2022-07-25T11:48:05;34.10;77.60
10472;DHT22;5283;48.876;8.962;2022-07-25T11:50:34;34.10;76.90
10472;DHT22;5283;48.876;8.962;2022-07-25T11:53:06;34.40;78.70
10472;DHT22;5283;48.876;8.962;2022-07-25T11:55:34;34.60;77.80
10472;DHT22;5283;48.876;8.962;2022-07-25T11:58:10;34.60;76.60
10472;DHT22;5283;48.876;8.962;2022-07-25T12:00:43;34.30;78.10
10472;DHT22;5283;48.876;8.962;2022-07-25T12:03:13;34.20;78.70
10472;DHT22;5283;48.876;8.962;2022-07-25T12:05:44;34.30;78.40
10472;DHT22;5283;48.876;8.962;2022-07-25T12:08:16;34.20;78.30
10472;DHT22;5283;48.876;8.962;2022-07-25T12:10:44;34.30;77.70
10472;DHT22;5283;48.876;8.962;2022-07-25T12:13:26;34.40;78.70
10472;DHT22;5283;48.876;8.962;2022-07-25T12:15:55;34.40;78.80
10472;DHT22;5283;48.876;8.962;2022-07-25T12:18:22;34.50;78.30
10472;DHT22;5283;48.876;8.962;2022-07-25T12:20:49;34.40;78.60
10472;DHT22;5283;48.876;8.962;2022-07-25T12:23:17;34.70;78.50
10472;DHT22;5283;48.876;8.962;2022-07-25T12:25:45;34.80;77.20
10472;DHT22;5283;48.876;8.962;2022-07-25T12:28:13;34.80;79.20
10472;DHT22;5283;48.876;8.962;2022-07-25T12:30:42;34.20;78.70
10472;DHT22;5283;48.876;8.962;2022-07-25T12:33:10;34.10;78.60
10472;DHT22;5283;48.876;8.962;2022-07-25T12:35:39;33.90;79.60
10472;DHT22;5283;48.876;8.962;2022-07-25T12:38:06;34.00;80.50
10472;DHT22;5283;48.876;8.962;2022-07-25T12:40:33;34.10;80.60
10472;DHT22;5283;48.876;8.962;2022-07-25T12:43:00;34.20;80.00
10472;DHT22;5283;48.876;8.962;2022-07-25T12:45:27;34.50;81.40
10472;DHT22;5283;48.876;8.962;2022-07-25T12:47:54;34.70;78.90
10472;DHT22;5283;48.876;8.962;2022-07-25T12:50:21;34.60;79.20
10472;DHT22;5283;48.876;8.962;2022-07-25T12:52:47;34.30;79.50
10472;DHT22;5283;48.876;8.962;2022-07-25T12:55:17;34.20;79.70
10472;DHT22;5283;48.876;8.962;2022-07-25T12:57:45;34.30;79.40
10472;DHT22;5283;48.876;8.962;2022-07-25T13:00:14;34.50;79.60
10472;DHT22;5283;48.876;8.962;2022-07-25T13:02:41;35.00;77.60
10472;DHT22;5283;48.876;8.962;2022-07-25T13:05:08;35.10;77.60
10472;DHT22;5283;48.876;8.962;2022-07-25T13:07:35;35.10;78.70
10472;DHT22;5283;48.876;8.962;2022-07-25T13:10:03;35.20;79.10
10472;DHT22;5283;48.876;8.962;2022-07-25T13:12:30;35.30;79.80
10472;DHT22;5283;48.876;8.962;2022-07-25T13:14:57;35.40;77.30
10472;DHT22;5283;48.876;8.962;2022-07-25T13:17:23;35.50;76.90
10472;DHT22;5283;48.876;8.962;2022-07-25T13:19:52;35.30;77.50
10472;DHT22;5283;48.876;8.962;2022-07-25T13:22:19;35.30;77.40
10472;DHT22;5283;48.876;8.962;2022-07-25T13:24:46;35.30;76.90
10472;DHT22;5283;48.876;8.962;2022-07-25T13:27:12;35.20;75.20
10472;DHT22;5283;48.876;8.962;2022-07-25T13:29:39;35.00;76.60
10472;DHT22;5283;48.876;8.962;2022-07-25T13:32:07;35.00;74.40
10472;DHT22;5283;48.876;8.962;2022-07-25T13:34:34;35.10;74.70
10472;DHT22;5283;48.876;8.962;2022-07-25T13:37:01;34.80;77.10
10472;DHT22;5283;48.876;8.962;2022-07-25T13:39:27;34.70;78.30
10472;DHT22;5283;48.876;8.962;2022-07-25T13:41:54;34.40;77.90
10472;DHT22;5283;48.876;8.962;2022-07-25T13:44:21;34.10;77.50
10472;DHT22;5283;48.876;8.962;2022-07-25T13:46:47;34.10;79.00
10472;DHT22;5283;48.876;8.962;2022-07-25T13:49:16;33.90;78.30
10472;DHT22;5283;48.876;8.962;2022-07-25T13:51:43;33.60;79.00
10472;DHT22;5283;48.876;8.962;2022-07-25T13:54:11;33.40;79.60
10472;DHT22;5283;48.876;8.962;2022-07-25T13:56:38;33.10;79.00
10472;DHT22;5283;48.876;8.962;2022-07-25T13:59:06;32.80;80.50
10472;DHT22;5283;48.876;8.962;2022-07-25T14:01:33;32.10;97.10
10472;DHT22;5283;48.876;8.962;2022-07-25T14:04:00;28.30;99.90
10472;DHT22;5283;48.876;8.962;2022-07-25T14:06:27;27.00;99.90
10472;DHT22;5283;48.876;8.962;2022-07-25T14:08:54;26.60;99.90
10472;DHT22;5283;48.876;8.962;2022-07-25T14:11:20;26.50;99.90
10472;DHT22;5283;48.876;8.962;2022-07-25T14:13:48;26.80;99.90
10472;DHT22;5283;48.876;8.962;2022-07-25T14:16:16;27.20;99.90
10472;DHT22;5283;48.876;8.962;2022-07-25T14:18:45;27.70;99.90
10472;DHT22;5283;48.876;8.962;2022-07-25T14:21:12;28.30;99.90
10472;DHT22;5283;48.876;8.962;2022-07-25T14:23:38;28.80;99.90
10472;DHT22;5283;48.876;8.962;2022-07-25T14:26:05;29.30;99.90
10472;DHT22;5283;48.876;8.962;2022-07-25T14:28:32;30.10;99.90
10472;DHT22;5283;48.876;8.962;2022-07-25T14:30:59;31.00;99.90
10472;DHT22;5283;48.876;8.962;2022-07-25T14:33:26;31.90;99.90
10472;DHT22;5283;48.876;8.962;2022-07-25T14:35:52;32.20;97.70
10472;DHT22;5283;48.876;8.962;2022-07-25T14:38:19;32.20;97.80
10472;DHT22;5283;48.876;8.962;2022-07-25T14:40:46;32.20;96.90
10472;DHT22;5283;48.876;8.962;2022-07-25T14:43:13;32.20;97.40
10472;DHT22;5283;48.876;8.962;2022-07-25T14:45:40;32.20;95.00
10472;DHT22;5283;48.876;8.962;2022-07-25T14:48:07;32.10;95.70
10472;DHT22;5283;48.876;8.962;2022-07-25T14:50:34;32.00;94.70
10472;DHT22;5283;48.876;8.962;2022-07-25T14:53:00;31.80;95.50
10472;DHT22;5283;48.876;8.962;2022-07-25T14:55:27;31.80;94.70
10472;DHT22;5283;48.876;8.962;2022-07-25T14:57:54;31.80;94.60
10472;DHT22;5283;48.876;8.962;2022-07-25T15:00:23;31.80;94.40
10472;DHT22;5283;48.876;8.962;2022-07-25T15:02:51;31.80;95.20
10472;DHT22;5283;48.876;8.962;2022-07-25T15:05:18;31.50;95.40
10472;DHT22;5283;48.876;8.962;2022-07-25T15:07:45;30.90;96.50
10472;DHT22;5283;48.876;8.962;2022-07-25T15:10:12;30.30;97.10
10472;DHT22;5283;48.876;8.962;2022-07-25T15:12:39;29.90;97.70
10472;DHT22;5283;48.876;8.962;2022-07-25T15:15:06;29.70;98.40
10472;DHT22;5283;48.876;8.962;2022-07-25T15:17:33;29.40;99.00
10472;DHT22;5283;48.876;8.962;2022-07-25T15:20:00;29.40;99.20
10472;DHT22;5283;48.876;8.962;2022-07-25T15:22:26;29.60;99.00
10472;DHT22;5283;48.876;8.962;2022-07-25T15:24:53;29.80;99.70
10472;DHT22;5283;48.876;8.962;2022-07-25T15:27:40;29.90;99.10
10472;DHT22;5283;48.876;8.962;2022-07-25T15:30:07;30.20;98.30
10472;DHT22;5283;48.876;8.962;2022-07-25T15:32:34;30.60;97.00
10472;DHT22;5283;48.876;8.962;2022-07-25T15:35:01;30.90;96.50
10472;DHT22;5283;48.876;8.962;2022-07-25T15:37:28;31.20;96.70
10472;DHT22;5283;48.876;8.962;2022-07-25T15:39:55;31.40;96.10
10472;DHT22;5283;48.876;8.962;2022-07-25T15:42:21;31.30;94.90
10472;DHT22;5283;48.876;8.962;2022-07-25T15:44:51;31.30;95.50
10472;DHT22;5283;48.876;8.962;2022-07-25T15:47:25;31.30;95.20
10472;DHT22;5283;48.876;8.962;2022-07-25T15:49:51;31.20;95.30
10472;DHT22;5283;48.876;8.962;2022-07-25T15:52:18;31.20;95.70
10472;DHT22;5283;48.876;8.962;2022-07-25T15:54:45;31.20;95.10